createdAt,value
2018-01-18T00:07:13.291Z,14
2018-01-18T00:36:53.216Z,9
2018-01-18T00:47:32.274Z,16
2018-01-18T01:27:09.469Z,13
2018-01-18T01:36:59.266Z,20
2018-01-18T01:47:14.696Z,11
2018-01-18T02:07:08.014Z,11
2018-01-18T02:27:22.969Z,12
2018-01-18T02:37:27.222Z,16
2018-01-18T03:16:59.959Z,17
2018-01-18T03:26:58.342Z,17
2018-01-18T03:47:17.399Z,8
2018-01-18T04:06:58.913Z,9
2018-01-18T04:16:53.230Z,10
2018-01-18T04:26:57.425Z,11
2018-01-18T04:37:04.644Z,6
2018-01-18T04:57:02.018Z,6
2018-01-18T05:07:36.502Z,5
2018-01-18T05:17:27.206Z,3
2018-01-18T05:26:57.244Z,3
2018-01-18T05:36:54.171Z,3
2018-01-18T06:06:52.156Z,2
2018-01-18T06:17:03.810Z,2
2018-01-18T06:26:52.138Z,1
2018-01-18T06:57:22.806Z,2
2018-01-18T07:27:07.588Z,3
2018-01-18T07:47:33.936Z,7
2018-01-18T08:16:56.710Z,7
2018-01-18T08:26:59.755Z,3
2018-01-18T08:36:57.458Z,3
2018-01-18T08:46:57.024Z,5
2018-01-18T09:37:14.968Z,8
2018-01-18T10:16:52.051Z,4
2018-01-18T10:46:52.074Z,5
2018-01-18T11:07:24.848Z,1
2018-01-18T11:27:05.087Z,3
2018-01-18T11:46:52.033Z,3
2018-01-18T12:07:30.466Z,5
2018-01-18T12:16:52.169Z,3
2018-01-18T12:26:53.209Z,2
2018-01-18T12:36:52.184Z,1
2018-01-18T12:46:52.165Z,3
2018-01-18T12:56:52.138Z,2
2018-01-18T13:06:52.184Z,3
2018-01-18T13:16:52.044Z,1
2018-01-18T13:26:52.053Z,5
2018-01-18T13:36:52.217Z,1
2018-01-18T13:46:52.137Z,4
2018-01-18T13:56:52.175Z,2
2018-01-18T14:06:52.326Z,1
2018-01-18T14:16:52.314Z,6
2018-01-18T14:26:52.264Z,6
2018-01-18T14:36:54.002Z,1
2018-01-18T14:46:52.274Z,4
2018-01-18T14:56:52.230Z,3
2018-01-18T15:06:52.064Z,3
2018-01-18T15:16:52.049Z,4
2018-01-18T15:26:52.201Z,4
2018-01-18T15:36:52.089Z,6
2018-01-18T15:46:52.137Z,1
2018-01-18T15:56:52.078Z,6
2018-01-18T16:06:52.044Z,5
2018-01-18T16:16:52.275Z,6
2018-01-18T16:26:52.187Z,8
2018-01-18T16:36:52.202Z,6
2018-01-18T16:46:52.160Z,3
2018-01-18T16:56:52.098Z,4
2018-01-18T17:06:52.115Z,3
2018-01-18T17:16:52.051Z,2
2018-01-18T17:26:52.056Z,2
2018-01-18T17:36:52.257Z,8
2018-01-18T17:46:52.218Z,5
2018-01-18T17:56:51.951Z,3
2018-01-18T18:06:52.289Z,4
2018-01-18T18:16:52.074Z,6
2018-01-18T18:26:52.406Z,4
2018-01-18T18:36:52.285Z,6
2018-01-18T18:46:52.065Z,5
2018-01-18T18:56:52.296Z,6
2018-01-18T19:06:52.089Z,6
2018-01-18T19:16:52.196Z,5
2018-01-18T19:26:52.748Z,5
2018-01-18T19:36:52.396Z,4
2018-01-18T19:46:52.590Z,7
2018-01-18T19:56:52.144Z,8
2018-01-18T20:06:52.471Z,8
2018-01-18T20:16:52.079Z,11
2018-01-18T20:26:52.077Z,8
2018-01-18T20:36:52.127Z,11
2018-01-18T20:46:52.211Z,9
2018-01-18T20:56:52.094Z,7
2018-01-18T21:06:52.152Z,6
2018-01-18T21:16:52.069Z,8
2018-01-18T21:26:52.175Z,7
2018-01-18T21:36:52.071Z,11
2018-01-18T21:46:52.304Z,5
2018-01-18T21:56:52.130Z,11
2018-01-18T22:06:52.128Z,9
2018-01-18T22:16:52.137Z,7
2018-01-18T22:26:52.240Z,8
2018-01-18T22:36:52.027Z,7
2018-01-18T22:46:52.057Z,10
2018-01-18T22:56:52.166Z,13
2018-01-18T23:06:52.662Z,13
2018-01-18T23:16:52.688Z,12
2018-01-18T23:26:52.138Z,15
2018-01-18T23:36:52.052Z,14
2018-01-18T23:46:51.996Z,18
2018-01-18T23:56:52.014Z,13
